Time;durP1;ratioP1;P1;durP2;ratioP2;P2;SDS_P1;SDS_P2;PMS_P1;PMS_P2;Temp;Humidity;BMP_temperature;BMP_pressure;BME280_temperature;BME280_humidity;BME280_pressure;Samples;Min_cycle;Max_cycle;Signal;HPM_P1;HPM_P2
2023/07/30 00:00:23;;;;;;;;;;;;;;;;;;5054668;28;19924;-88
2023/07/30 00:02:49;;;;;;;;;;;;;;;;;;5054157;28;19928;-89
2023/07/30 00:05:15;;;;;;;;;;;;;;;;;;5054683;28;19954;-89
2023/07/30 00:07:41;;;;;;;;;;;;;;;;;;5019878;28;20296;-89
2023/07/30 00:10:07;;;;;;;;;;;;;;;;;;5054393;28;19952;-89
2023/07/30 00:12:33;;;;;;;;;;;;;;;;;;5036408;28;20085;-88
2023/07/30 00:14:59;;;;;;;;;;;;;;;;;;5036460;28;19920;-89
2023/07/30 00:17:24;;;;;;;;;;;;;;;;;;5020020;28;19933;-89
2023/07/30 00:19:50;;;;;;;;;;;;;;;;;;5036228;28;20395;-89
2023/07/30 00:22:16;;;;;;;;;;;;;;;;;;5036207;28;19924;-89
2023/07/30 00:24:42;;;;;;;;;;;;;;;;;;5054138;28;19920;-89
2023/07/30 00:27:08;;;;;;;;;;;;;;;;;;5036070;28;19968;-89
2023/07/30 00:29:34;;;;;;;;;;;;;;;;;;5054106;28;19927;-89
2023/07/30 00:32:00;;;;;;;;;;;;;;;;;;5054237;28;19927;-89
2023/07/30 00:34:26;;;;;;;;;;;;;;;;;;5035931;28;19921;-90
2023/07/30 00:36:52;;;;;;;;;;;;;;;;;;5019320;28;19921;-89
2023/07/30 00:39:17;;;;;;;;;;;;;;;;;;5035927;28;20367;-89
2023/07/30 00:41:45;;;;;;;;;;;;;;;;;;5035873;28;20392;-89
2023/07/30 00:44:11;;;;;;;;;;;;;;;;;;5019233;28;20429;-89
2023/07/30 00:46:37;;;;;;;;;;;;;;;;;;5035662;28;20019;-89
2023/07/30 00:49:03;;;;;;;;;;;;;;;;;;5035860;28;20010;-89
2023/07/30 00:51:29;;;;;;;;;;;;;;;;;;5035821;28;19927;-89
2023/07/30 00:53:55;;;;;;;;;;;;;;;;;;5019482;28;20326;-88
2023/07/30 00:56:21;;;;;;;;;;;;;;;;;;5035414;28;19967;-88
2023/07/30 00:58:47;;;;;;;;;;;;;;;;;;5018626;28;19920;-88
2023/07/30 01:01:12;;;;;;;;;;;;;;;;;;5035276;28;19920;-88
2023/07/30 01:03:38;;;;;;;;;;;;;;;;;;5035269;28;19983;-88
2023/07/30 01:06:04;;;;;;;;;;;;;;;;;;5035372;28;20319;-88
2023/07/30 01:08:30;;;;;;;;;;;;;;;;;;5053364;28;19966;-88
2023/07/30 01:10:56;;;;;;;;;;;;;;;;;;5035552;28;19921;-89
2023/07/30 01:13:22;;;;;;;;;;;;;;;;;;5035475;28;20337;-88
2023/07/30 01:15:48;;;;;;;;;;;;;;;;;;5053049;28;19927;-88
2023/07/30 01:18:14;;;;;;;;;;;;;;;;;;5053016;28;20003;-88
2023/07/30 01:20:40;;;;;;;;;;;;;;;;;;5053150;28;20017;-89
2023/07/30 01:23:06;;;;;;;;;;;;;;;;;;5035154;28;19925;-89
2023/07/30 01:25:33;;;;;;;;;;;;;;;;;;5018667;28;19921;-88
2023/07/30 01:27:59;;;;;;;;;;;;;;;;;;5035320;28;20291;-89
2023/07/30 01:30:25;;;;;;;;;;;;;;;;;;5035033;28;19968;-89
2023/07/30 01:32:51;;;;;;;;;;;;;;;;;;5035124;28;20045;-88
2023/07/30 01:35:17;;;;;;;;;;;;;;;;;;5018383;28;20024;-88
2023/07/30 01:37:42;;;;;;;;;;;;;;;;;;5034636;28;19972;-88
2023/07/30 01:40:08;;;;;;;;;;;;;;;;;;5034774;28;20000;-88
2023/07/30 01:42:34;;;;;;;;;;;;;;;;;;5034721;28;20336;-88
2023/07/30 01:45:00;;;;;;;;;;;;;;;;;;5034549;28;19931;-88
2023/07/30 01:47:26;;;;;;;;;;;;;;;;;;5052611;28;19921;-89
2023/07/30 01:49:52;;;;;;;;;;;;;;;;;;5034630;28;19928;-89
2023/07/30 01:52:18;;;;;;;;;;;;;;;;;;5034636;28;19982;-88
2023/07/30 01:54:44;;;;;;;;;;;;;;;;;;5034531;28;19975;-89
2023/07/30 01:57:12;;;;;;;;;;;;;;;;;;5052203;28;20007;-89
2023/07/30 01:59:38;;;;;;;;;;;;;;;;;;5034641;28;19920;-87
2023/07/30 02:02:04;;;;;;;;;;;;;;;;;;5034420;28;20343;-88
2023/07/30 02:04:30;;;;;;;;;;;;;;;;;;5034364;28;19925;-89
2023/07/30 02:06:56;;;;;;;;;;;;;;;;;;5052134;28;19921;-88
2023/07/30 02:09:22;;;;;;;;;;;;;;;;;;5017445;28;19920;-88
2023/07/30 02:11:48;;;;;;;;;;;;;;;;;;5052057;28;20333;-88
2023/07/30 02:14:13;;;;;;;;;;;;;;;;;;5034621;28;19928;-88
2023/07/30 02:16:39;;;;;;;;;;;;;;;;;;5052404;28;20399;-88
2023/07/30 02:19:05;;;;;;;;;;;;;;;;;;5034325;28;19924;-88
2023/07/30 02:21:32;;;;;;;;;;;;;;;;;;5034194;28;19925;-89
2023/07/30 02:23:58;;;;;;;;;;;;;;;;;;5033967;28;20023;-88
2023/07/30 02:26:24;;;;;;;;;;;;;;;;;;5051877;28;20012;-89
2023/07/30 02:28:50;;;;;;;;;;;;;;;;;;5017608;28;20008;-89
2023/07/30 02:31:15;;;;;;;;;;;;;;;;;;5052122;28;19920;-89
2023/07/30 02:33:41;;;;;;;;;;;;;;;;;;5034058;28;20019;-88
2023/07/30 02:36:07;;;;;;;;;;;;;;;;;;5017825;28;19921;-88
2023/07/30 02:38:33;;;;;;;;;;;;;;;;;;5051819;28;19929;-88
2023/07/30 02:40:59;;;;;;;;;;;;;;;;;;5017610;28;19956;-88
2023/07/30 02:43:25;;;;;;;;;;;;;;;;;;5052069;28;19931;-88
2023/07/30 02:45:51;;;;;;;;;;;;;;;;;;5033963;28;19952;-88
2023/07/30 02:48:17;;;;;;;;;;;;;;;;;;5034089;28;19928;-88
2023/07/30 02:50:43;;;;;;;;;;;;;;;;;;5033908;28;19947;-87
2023/07/30 02:53:09;;;;;;;;;;;;;;;;;;5017923;28;19941;-88
2023/07/30 02:55:35;;;;;;;;;;;;;;;;;;5034079;28;19921;-88
2023/07/30 02:58:00;;;;;;;;;;;;;;;;;;5051705;28;20029;-88
2023/07/30 03:00:26;;;;;;;;;;;;;;;;;;5017335;28;19947;-88
2023/07/30 03:02:52;;;;;;;;;;;;;;;;;;5051466;28;19964;-88
2023/07/30 03:05:18;;;;;;;;;;;;;;;;;;5033781;28;19925;-87
2023/07/30 03:07:44;;;;;;;;;;;;;;;;;;5051635;28;20003;-88
2023/07/30 03:10:10;;;;;;;;;;;;;;;;;;5017482;28;19943;-89
2023/07/30 03:12:36;;;;;;;;;;;;;;;;;;5017247;28;19943;-88
2023/07/30 03:15:02;;;;;;;;;;;;;;;;;;5051585;28;20299;-88
2023/07/30 03:17:28;;;;;;;;;;;;;;;;;;5033780;28;19928;-87
2023/07/30 03:19:54;;;;;;;;;;;;;;;;;;5035559;28;19952;-88
2023/07/30 03:22:20;;;;;;;;;;;;;;;;;;5037356;28;19921;-87
2023/07/30 03:24:45;;;;;;;;;;;;;;;;;;5037230;28;19920;-88
2023/07/30 03:27:11;;;;;;;;;;;;;;;;;;5055436;28;19964;-88
2023/07/30 03:29:37;;;;;;;;;;;;;;;;;;5055157;28;19920;-88
2023/07/30 03:32:03;;;;;;;;;;;;;;;;;;5055284;28;20259;-88
2023/07/30 03:34:29;;;;;;;;;;;;;;;;;;5020724;28;19927;-88
2023/07/30 03:36:55;;;;;;;;;;;;;;;;;;5037128;28;19921;-88
2023/07/30 03:39:21;;;;;;;;;;;;;;;;;;5020604;28;20391;-88
2023/07/30 03:41:47;;;;;;;;;;;;;;;;;;5055222;28;19944;-87
2023/07/30 03:44:13;;;;;;;;;;;;;;;;;;5037378;28;19994;-88
2023/07/30 03:46:39;;;;;;;;;;;;;;;;;;5036989;28;19924;-88
2023/07/30 03:49:04;;;;;;;;;;;;;;;;;;5036848;28;20021;-89
2023/07/30 03:51:30;;;;;;;;;;;;;;;;;;5036859;28;20017;-87
2023/07/30 03:53:56;;;;;;;;;;;;;;;;;;5036681;28;19960;-89
2023/07/30 03:56:22;;;;;;;;;;;;;;;;;;5036965;28;19921;-89
2023/07/30 03:58:48;;;;;;;;;;;;;;;;;;5036688;28;20001;-89
2023/07/30 04:01:14;;;;;;;;;;;;;;;;;;5036566;28;20284;-88
2023/07/30 04:03:40;;;;;;;;;;;;;;;;;;5036660;28;19925;-87
2023/07/30 04:06:06;;;;;;;;;;;;;;;;;;5036612;28;20013;-89
2023/07/30 04:08:32;;;;;;;;;;;;;;;;;;5054260;28;19920;-88
2023/07/30 04:10:58;;;;;;;;;;;;;;;;;;5036623;28;19927;-88
2023/07/30 04:13:24;;;;;;;;;;;;;;;;;;5020270;28;20327;-89
2023/07/30 04:15:49;;;;;;;;;;;;;;;;;;5020038;28;19946;-89
2023/07/30 04:18:15;;;;;;;;;;;;;;;;;;5036488;28;19920;-89
2023/07/30 04:20:41;;;;;;;;;;;;;;;;;;5020094;28;19928;-88
2023/07/30 04:23:07;;;;;;;;;;;;;;;;;;5019724;28;19935;-89
2023/07/30 04:25:33;;;;;;;;;;;;;;;;;;5054301;28;19964;-89
2023/07/30 04:27:59;;;;;;;;;;;;;;;;;;5036376;28;19921;-89
2023/07/30 04:30:25;;;;;;;;;;;;;;;;;;5035731;28;19921;-88
2023/07/30 04:32:51;;;;;;;;;;;;;;;;;;5051963;28;20015;-88
2023/07/30 04:35:17;;;;;;;;;;;;;;;;;;5053994;28;20464;-88
2023/07/30 04:37:43;;;;;;;;;;;;;;;;;;5036051;28;19924;-89
2023/07/30 04:40:09;;;;;;;;;;;;;;;;;;5072238;28;19921;-88
2023/07/30 04:42:34;;;;;;;;;;;;;;;;;;5035929;28;20368;-88
2023/07/30 04:45:00;;;;;;;;;;;;;;;;;;5035674;28;19932;-88
2023/07/30 04:47:26;;;;;;;;;;;;;;;;;;5035650;28;19921;-88
2023/07/30 04:49:52;;;;;;;;;;;;;;;;;;5035500;28;19927;-89
2023/07/30 04:52:18;;;;;;;;;;;;;;;;;;5047828;28;19946;-88
2023/07/30 04:54:44;;;;;;;;;;;;;;;;;;5055692;28;19924;-89
2023/07/30 04:57:10;;;;;;;;;;;;;;;;;;5055580;28;19920;-88
2023/07/30 04:59:36;;;;;;;;;;;;;;;;;;5073522;28;19920;-89
2023/07/30 05:02:02;;;;;;;;;;;;;;;;;;5055320;28;19947;-89
2023/07/30 05:04:28;;;;;;;;;;;;;;;;;;5038687;28;19976;-89
2023/07/30 05:06:54;;;;;;;;;;;;;;;;;;5038246;28;19927;-88
2023/07/30 05:09:20;;;;;;;;;;;;;;;;;;5055651;28;20123;-88
2023/07/30 05:11:45;;;;;;;;;;;;;;;;;;5055566;28;20429;-88
2023/07/30 05:14:11;;;;;;;;;;;;;;;;;;5055061;28;19927;-89
2023/07/30 05:16:37;;;;;;;;;;;;;;;;;;5055087;28;20018;-89
2023/07/30 05:19:03;;;;;;;;;;;;;;;;;;5055049;28;19931;-88
2023/07/30 05:21:29;;;;;;;;;;;;;;;;;;5055566;28;20280;-89
2023/07/30 05:23:55;;;;;;;;;;;;;;;;;;5055017;28;19929;-90
2023/07/30 05:26:21;;;;;;;;;;;;;;;;;;5072894;28;19974;-89
2023/07/30 05:28:47;;;;;;;;;;;;;;;;;;5055122;28;19921;-88
2023/07/30 05:31:13;;;;;;;;;;;;;;;;;;5073060;28;19924;-91
2023/07/30 05:33:39;;;;;;;;;;;;;;;;;;5054725;28;19921;-90
2023/07/30 05:36:06;;;;;;;;;;;;;;;;;;5072637;28;19928;-88
2023/07/30 05:38:32;;;;;;;;;;;;;;;;;;5054832;28;19920;-88
2023/07/30 05:40:58;;;;;;;;;;;;;;;;;;5072876;28;20360;-90
2023/07/30 05:43:24;;;;;;;;;;;;;;;;;;5038182;28;19928;-90
2023/07/30 05:45:49;;;;;;;;;;;;;;;;;;5054643;28;20394;-90
2023/07/30 05:48:15;;;;;;;;;;;;;;;;;;5072563;28;20285;-89
2023/07/30 05:50:41;;;;;;;;;;;;;;;;;;5054810;28;19921;-91
2023/07/30 05:53:07;;;;;;;;;;;;;;;;;;5072676;28;19921;-90
2023/07/30 05:55:33;;;;;;;;;;;;;;;;;;5054657;28;19925;-88
2023/07/30 05:57:59;;;;;;;;;;;;;;;;;;5054475;28;19920;-89
2023/07/30 06:00:25;;;;;;;;;;;;;;;;;;5054348;28;19921;-89
2023/07/30 06:02:51;;;;;;;;;;;;;;;;;;5066333;28;19935;-89
2023/07/30 06:05:17;;;;;;;;;;;;;;;;;;5034469;28;19935;-89
2023/07/30 06:07:43;;;;;;;;;;;;;;;;;;5034345;28;20296;-89
2023/07/30 06:10:08;;;;;;;;;;;;;;;;;;5034627;28;19921;-89
2023/07/30 06:12:34;;;;;;;;;;;;;;;;;;5053749;28;19925;-89
2023/07/30 06:15:00;;;;;;;;;;;;;;;;;;5054338;28;20327;-88
2023/07/30 06:17:26;;;;;;;;;;;;;;;;;;5054092;28;19920;-88
2023/07/30 06:19:52;;;;;;;;;;;;;;;;;;5071909;28;19959;-88
2023/07/30 06:22:18;;;;;;;;;;;;;;;;;;5054433;28;19920;-89
2023/07/30 06:24:44;;;;;;;;;;;;;;;;;;5072145;28;20440;-90
2023/07/30 06:27:10;;;;;;;;;;;;;;;;;;5072228;28;19924;-86
2023/07/30 06:29:36;;;;;;;;;;;;;;;;;;5072219;28;19972;-88
2023/07/30 06:32:02;;;;;;;;;;;;;;;;;;5054081;28;19927;-88
2023/07/30 06:34:27;;;;;;;;;;;;;;;;;;5053790;28;19975;-87
2023/07/30 06:36:53;;;;;;;;;;;;;;;;;;5053871;28;19931;-89
2023/07/30 06:39:19;;;;;;;;;;;;;;;;;;5037541;28;19921;-89
2023/07/30 06:41:45;;;;;;;;;;;;;;;;;;5072054;28;19935;-89
2023/07/30 06:44:11;;;;;;;;;;;;;;;;;;5037203;28;19974;-88
2023/07/30 06:46:37;;;;;;;;;;;;;;;;;;5071906;28;20332;-89
2023/07/30 06:49:03;;;;;;;;;;;;;;;;;;5053749;28;19935;-88
2023/07/30 06:51:29;;;;;;;;;;;;;;;;;;5071875;28;19986;-89
2023/07/30 06:53:55;;;;;;;;;;;;;;;;;;5054028;28;19924;-88
2023/07/30 06:56:21;;;;;;;;;;;;;;;;;;5058166;28;19927;-88
2023/07/30 06:58:47;;;;;;;;;;;;;;;;;;5075949;28;19920;-90
2023/07/30 07:01:13;;;;;;;;;;;;;;;;;;5057913;28;19921;-87
2023/07/30 07:03:39;;;;;;;;;;;;;;;;;;5075485;28;19925;-93
2023/07/30 07:06:05;;;;;;;;;;;;;;;;;;5057777;28;19928;-87
2023/07/30 07:08:31;;;;;;;;;;;;;;;;;;5057596;28;20010;-89
2023/07/30 07:10:57;;;;;;;;;;;;;;;;;;5057625;28;19920;-88
2023/07/30 07:13:23;;;;;;;;;;;;;;;;;;5057533;28;19920;-88
2023/07/30 07:15:48;;;;;;;;;;;;;;;;;;5075206;28;19966;-88
2023/07/30 07:18:14;;;;;;;;;;;;;;;;;;5057282;28;19920;-89
2023/07/30 07:20:40;;;;;;;;;;;;;;;;;;5027916;28;19920;-89
2023/07/30 07:23:06;;;;;;;;;;;;;;;;;;5072065;28;19928;-89
2023/07/30 07:25:32;;;;;;;;;;;;;;;;;;5036683;28;19921;-88
2023/07/30 07:27:58;;;;;;;;;;;;;;;;;;5036785;28;20442;-89
2023/07/30 07:30:24;;;;;;;;;;;;;;;;;;5037294;28;19920;-88
2023/07/30 07:32:50;;;;;;;;;;;;;;;;;;5055391;28;19927;-88
2023/07/30 07:35:16;;;;;;;;;;;;;;;;;;5055204;28;19971;-89
2023/07/30 07:37:42;;;;;;;;;;;;;;;;;;5020386;28;19962;-89
2023/07/30 07:40:09;;;;;;;;;;;;;;;;;;5037290;28;19947;-90
2023/07/30 07:42:35;;;;;;;;;;;;;;;;;;5037067;28;19921;-88
2023/07/30 07:45:01;;;;;;;;;;;;;;;;;;5036682;28;19925;-89
2023/07/30 07:47:27;;;;;;;;;;;;;;;;;;5054660;28;19921;-88
2023/07/30 07:49:53;;;;;;;;;;;;;;;;;;5020478;28;19924;-90
2023/07/30 07:52:20;;;;;;;;;;;;;;;;;;5020283;28;19921;-88
2023/07/30 07:54:46;;;;;;;;;;;;;;;;;;5036866;28;20402;-88
2023/07/30 07:57:12;;;;;;;;;;;;;;;;;;5036774;28;19921;-88
2023/07/30 07:59:38;;;;;;;;;;;;;;;;;;5054802;28;20012;-89
2023/07/30 08:02:04;;;;;;;;;;;;;;;;;;5054508;28;19928;-88
2023/07/30 08:04:30;;;;;;;;;;;;;;;;;;5036509;28;19974;-89
2023/07/30 08:06:59;;;;;;;;;;;;;;;;;;5035373;28;20284;-88
2023/07/30 08:09:25;;;;;;;;;;;;;;;;;;5020038;28;19921;-89
2023/07/30 08:11:51;;;;;;;;;;;;;;;;;;5055353;28;20007;-89
2023/07/30 08:14:17;;;;;;;;;;;;;;;;;;5074406;28;19920;-90
2023/07/30 08:16:43;;;;;;;;;;;;;;;;;;5039740;28;19977;-89
2023/07/30 08:19:09;;;;;;;;;;;;;;;;;;5056273;28;19924;-89
2023/07/30 08:21:35;;;;;;;;;;;;;;;;;;5074187;28;19996;-88
2023/07/30 08:24:01;;;;;;;;;;;;;;;;;;5002883;28;19979;-90
2023/07/30 08:26:27;;;;;;;;;;;;;;;;;;4996609;28;20012;-90
2023/07/30 08:28:53;;;;;;;;;;;;;;;;;;5013060;28;19974;-90
2023/07/30 08:31:18;;;;;;;;;;;;;;;;;;5014684;28;19929;-87
2023/07/30 08:33:44;;;;;;;;;;;;;;;;;;5012896;28;20349;-87
2023/07/30 08:36:10;;;;;;;;;;;;;;;;;;4996999;28;20063;-89
2023/07/30 08:38:36;;;;;;;;;;;;;;;;;;5013005;28;19922;-87
2023/07/30 08:41:02;;;;;;;;;;;;;;;;;;4996714;28;19921;-87
2023/07/30 08:43:28;;;;;;;;;;;;;;;;;;5012649;28;19931;-87
2023/07/30 08:45:54;;;;;;;;;;;;;;;;;;5012962;28;20296;-88
2023/07/30 08:48:20;;;;;;;;;;;;;;;;;;5012367;28;19921;-88
2023/07/30 08:50:46;;;;;;;;;;;;;;;;;;5012873;28;19922;-89
2023/07/30 08:53:11;;;;;;;;;;;;;;;;;;5013668;28;19928;-88
2023/07/30 08:55:37;;;;;;;;;;;;;;;;;;5013977;28;19921;-87
2023/07/30 08:58:03;;;;;;;;;;;;;;;;;;5013411;28;19925;-88
2023/07/30 09:00:29;;;;;;;;;;;;;;;;;;5012527;28;19929;-89
2023/07/30 09:02:55;;;;;;;;;;;;;;;;;;5012311;28;20012;-88
2023/07/30 09:05:22;;;;;;;;;;;;;;;;;;4995912;28;19931;-88
2023/07/30 09:07:48;;;;;;;;;;;;;;;;;;4996151;28;19921;-89
2023/07/30 09:10:14;;;;;;;;;;;;;;;;;;5012497;28;19921;-88
2023/07/30 09:12:40;;;;;;;;;;;;;;;;;;5012055;28;20231;-89
2023/07/30 09:15:06;;;;;;;;;;;;;;;;;;5012183;28;20351;-89
2023/07/30 09:17:32;;;;;;;;;;;;;;;;;;5013311;28;19921;-88
2023/07/30 09:19:58;;;;;;;;;;;;;;;;;;4995563;28;19921;-89
2023/07/30 09:22:23;;;;;;;;;;;;;;;;;;4995747;28;19932;-88
2023/07/30 09:24:49;;;;;;;;;;;;;;;;;;5012187;28;19932;-88
2023/07/30 09:27:15;;;;;;;;;;;;;;;;;;4995134;28;19926;-88
2023/07/30 09:29:41;;;;;;;;;;;;;;;;;;5013310;28;20052;-88
2023/07/30 09:32:07;;;;;;;;;;;;;;;;;;5013402;28;19922;-89
2023/07/30 09:34:33;;;;;;;;;;;;;;;;;;5011945;28;20412;-88
2023/07/30 09:36:59;;;;;;;;;;;;;;;;;;5011417;28;19921;-87
2023/07/30 09:39:25;;;;;;;;;;;;;;;;;;5028481;28;19962;-89
2023/07/30 09:41:51;;;;;;;;;;;;;;;;;;5011948;28;20397;-88
2023/07/30 09:44:17;;;;;;;;;;;;;;;;;;5011514;28;19975;-89
2023/07/30 09:46:43;;;;;;;;;;;;;;;;;;5011574;28;19925;-89
2023/07/30 09:49:09;;;;;;;;;;;;;;;;;;5012979;28;19921;-90
2023/07/30 09:51:35;;;;;;;;;;;;;;;;;;5011689;28;20429;-88
2023/07/30 09:54:01;;;;;;;;;;;;;;;;;;5011730;28;19926;-90
2023/07/30 09:56:27;;;;;;;;;;;;;;;;;;5012190;28;19995;-89
2023/07/30 09:58:53;;;;;;;;;;;;;;;;;;5029060;28;19921;-89
2023/07/30 10:01:19;;;;;;;;;;;;;;;;;;5012600;28;20008;-88
2023/07/30 10:03:45;;;;;;;;;;;;;;;;;;5011242;28;19933;-89
2023/07/30 10:06:12;;;;;;;;;;;;;;;;;;5011194;28;19921;-88
2023/07/30 10:08:38;;;;;;;;;;;;;;;;;;5011522;28;20001;-89
2023/07/30 10:11:04;;;;;;;;;;;;;;;;;;5011310;28;20370;-88
2023/07/30 10:13:30;;;;;;;;;;;;;;;;;;5011296;28;20301;-88
2023/07/30 10:15:58;;;;;;;;;;;;;;;;;;5011533;28;19929;-88
2023/07/30 10:18:24;;;;;;;;;;;;;;;;;;5013125;28;19932;-92
2023/07/30 10:20:50;;;;;;;;;;;;;;;;;;5031093;28;20001;-91
2023/07/30 10:23:16;;;;;;;;;;;;;;;;;;5028907;28;19941;-91
2023/07/30 10:25:42;;;;;;;;;;;;;;;;;;5012623;28;19921;-92
2023/07/30 10:28:08;;;;;;;;;;;;;;;;;;5012764;28;19921;-90
2023/07/30 10:30:34;;;;;;;;;;;;;;;;;;5011782;28;20280;-93
2023/07/30 10:33:00;;;;;;;;;;;;;;;;;;5015138;28;19922;-93
2023/07/30 10:35:27;;;;;;;;;;;;;;;;;;5031648;28;20013;-93
2023/07/30 10:37:53;;;;;;;;;;;;;;;;;;5014136;28;20352;-93
2023/07/30 10:40:19;;;;;;;;;;;;;;;;;;5013281;28;19948;-93
2023/07/30 10:42:45;;;;;;;;;;;;;;;;;;5014262;28;19921;-93
2023/07/30 10:45:11;;;;;;;;;;;;;;;;;;5012512;28;20016;-93
2023/07/30 10:47:37;;;;;;;;;;;;;;;;;;5012686;28;20420;-93
2023/07/30 10:50:03;;;;;;;;;;;;;;;;;;5028227;28;19947;-93
2023/07/30 10:52:29;;;;;;;;;;;;;;;;;;5011728;28;19994;-92
2023/07/30 10:54:55;;;;;;;;;;;;;;;;;;5012705;28;19922;-93
2023/07/30 10:57:21;;;;;;;;;;;;;;;;;;5028655;28;19925;-93
2023/07/30 10:59:47;;;;;;;;;;;;;;;;;;5011233;28;19921;-92
2023/07/30 11:02:13;;;;;;;;;;;;;;;;;;5010868;28;20023;-93
2023/07/30 11:04:41;;;;;;;;;;;;;;;;;;5011179;28;20297;-92
2023/07/30 11:07:07;;;;;;;;;;;;;;;;;;5011083;28;20017;-91
2023/07/30 11:09:33;;;;;;;;;;;;;;;;;;5027364;28;20012;-89
2023/07/30 11:11:59;;;;;;;;;;;;;;;;;;5009009;28;19921;-89
2023/07/30 11:14:25;;;;;;;;;;;;;;;;;;5010895;28;19921;-90
2023/07/30 11:16:51;;;;;;;;;;;;;;;;;;5011098;28;20268;-88
2023/07/30 11:19:17;;;;;;;;;;;;;;;;;;5012034;28;19921;-88
2023/07/30 11:21:43;;;;;;;;;;;;;;;;;;5010565;28;19925;-90
2023/07/30 11:24:09;;;;;;;;;;;;;;;;;;5010745;28;19925;-88
2023/07/30 11:26:35;;;;;;;;;;;;;;;;;;4994124;28;19921;-89
2023/07/30 11:29:01;;;;;;;;;;;;;;;;;;5010524;28;20207;-86
2023/07/30 11:31:27;;;;;;;;;;;;;;;;;;5010605;28;19953;-87
2023/07/30 11:33:53;;;;;;;;;;;;;;;;;;5010512;28;20068;-87
2023/07/30 11:36:18;;;;;;;;;;;;;;;;;;5010881;28;20010;-87
2023/07/30 11:38:44;;;;;;;;;;;;;;;;;;4994117;28;20012;-88
2023/07/30 11:41:10;;;;;;;;;;;;;;;;;;4996116;28;20289;-89
2023/07/30 11:43:36;;;;;;;;;;;;;;;;;;5013762;28;19933;-88
2023/07/30 11:46:02;;;;;;;;;;;;;;;;;;4997411;28;19929;-87
2023/07/30 11:48:28;;;;;;;;;;;;;;;;;;5013802;28;19928;-87
2023/07/30 11:50:54;;;;;;;;;;;;;;;;;;5013457;28;20001;-87
2023/07/30 11:53:20;;;;;;;;;;;;;;;;;;5014112;28;19926;-90
2023/07/30 11:55:46;;;;;;;;;;;;;;;;;;5015151;28;19925;-95
2023/07/30 11:58:12;;;;;;;;;;;;;;;;;;5013879;28;19991;-89
2023/07/30 12:00:38;;;;;;;;;;;;;;;;;;4997308;28;19921;-88
2023/07/30 12:03:04;;;;;;;;;;;;;;;;;;5013418;28;19987;-89
2023/07/30 12:05:30;;;;;;;;;;;;;;;;;;5013868;28;19926;-89
2023/07/30 12:07:55;;;;;;;;;;;;;;;;;;5013392;28;20380;-89
2023/07/30 12:10:21;;;;;;;;;;;;;;;;;;4996964;28;20134;-89
2023/07/30 12:12:47;;;;;;;;;;;;;;;;;;5014711;28;19922;-89
2023/07/30 12:15:13;;;;;;;;;;;;;;;;;;4997078;28;19925;-90
2023/07/30 12:17:39;;;;;;;;;;;;;;;;;;5008734;28;19991;-90
2023/07/30 12:20:06;;;;;;;;;;;;;;;;;;4995778;28;20084;-92
2023/07/30 12:22:33;;;;;;;;;;;;;;;;;;4977536;28;20370;-89
2023/07/30 12:24:59;;;;;;;;;;;;;;;;;;4977299;28;19922;-90
2023/07/30 12:27:25;;;;;;;;;;;;;;;;;;4976944;28;19932;-89
2023/07/30 12:29:51;;;;;;;;;;;;;;;;;;4993366;28;19928;-89
2023/07/30 12:32:17;;;;;;;;;;;;;;;;;;4977172;28;20056;-90
2023/07/30 12:34:43;;;;;;;;;;;;;;;;;;4993601;28;20001;-91
2023/07/30 12:37:09;;;;;;;;;;;;;;;;;;4977383;28;19933;-89
2023/07/30 12:39:35;;;;;;;;;;;;;;;;;;4993570;28;20012;-89
2023/07/30 12:42:01;;;;;;;;;;;;;;;;;;5009721;28;20376;-90
2023/07/30 12:44:27;;;;;;;;;;;;;;;;;;5029300;28;19927;-91
2023/07/30 12:46:53;;;;;;;;;;;;;;;;;;5012610;28;19933;-92
2023/07/30 12:49:19;;;;;;;;;;;;;;;;;;5012559;28;19988;-91
2023/07/30 12:51:45;;;;;;;;;;;;;;;;;;5012250;28;19922;-90
2023/07/30 12:54:10;;;;;;;;;;;;;;;;;;5029523;28;19944;-90
2023/07/30 12:56:36;;;;;;;;;;;;;;;;;;5012558;28;19922;-90
2023/07/30 12:59:02;;;;;;;;;;;;;;;;;;5012874;28;19922;-89
2023/07/30 13:01:28;;;;;;;;;;;;;;;;;;5012313;28;19921;-89
2023/07/30 13:03:54;;;;;;;;;;;;;;;;;;5012823;28;20007;-91
2023/07/30 13:06:20;;;;;;;;;;;;;;;;;;5012276;28;19921;-89
2023/07/30 13:08:48;;;;;;;;;;;;;;;;;;5013235;28;21258;-90
2023/07/30 13:11:14;;;;;;;;;;;;;;;;;;5012300;28;20012;-89
2023/07/30 13:13:40;;;;;;;;;;;;;;;;;;5012300;28;19922;-90
2023/07/30 13:16:06;;;;;;;;;;;;;;;;;;5028731;28;20022;-89
2023/07/30 13:18:32;;;;;;;;;;;;;;;;;;5013570;28;20324;-89
2023/07/30 13:20:58;;;;;;;;;;;;;;;;;;5011989;28;19971;-88
2023/07/30 13:23:25;;;;;;;;;;;;;;;;;;5012234;28;19932;-90
2023/07/30 13:25:51;;;;;;;;;;;;;;;;;;5028387;28;19921;-89
2023/07/30 13:28:17;;;;;;;;;;;;;;;;;;5013475;28;19948;-89
2023/07/30 13:30:43;;;;;;;;;;;;;;;;;;5012013;28;20392;-89
2023/07/30 13:33:09;;;;;;;;;;;;;;;;;;5011989;28;19928;-92
2023/07/30 13:35:35;;;;;;;;;;;;;;;;;;5012512;28;19933;-92
2023/07/30 13:38:00;;;;;;;;;;;;;;;;;;5011487;28;19927;-89
2023/07/30 13:40:26;;;;;;;;;;;;;;;;;;5028130;28;19964;-89
2023/07/30 13:42:52;;;;;;;;;;;;;;;;;;5013349;28;20374;-90
2023/07/30 13:45:18;;;;;;;;;;;;;;;;;;5011591;28;20032;-91
2023/07/30 13:47:44;;;;;;;;;;;;;;;;;;5011584;28;20278;-90
2023/07/30 13:50:10;;;;;;;;;;;;;;;;;;5002386;28;19944;-89
2023/07/30 13:52:36;;;;;;;;;;;;;;;;;;4992460;28;20460;-90
2023/07/30 13:55:02;;;;;;;;;;;;;;;;;;4992388;28;19921;-89
2023/07/30 13:57:28;;;;;;;;;;;;;;;;;;4991831;28;20016;-90
2023/07/30 13:59:54;;;;;;;;;;;;;;;;;;4976005;28;20397;-93
2023/07/30 14:02:20;;;;;;;;;;;;;;;;;;4991739;28;20009;-90
2023/07/30 14:04:46;;;;;;;;;;;;;;;;;;4992396;28;19933;-90
2023/07/30 14:07:12;;;;;;;;;;;;;;;;;;4975285;28;19933;-90
2023/07/30 14:09:38;;;;;;;;;;;;;;;;;;4975664;28;19963;-89
2023/07/30 14:12:04;;;;;;;;;;;;;;;;;;4991614;28;19926;-89
2023/07/30 14:14:30;;;;;;;;;;;;;;;;;;4991401;28;19929;-89
2023/07/30 14:16:56;;;;;;;;;;;;;;;;;;4989204;28;19929;-89
2023/07/30 14:19:21;;;;;;;;;;;;;;;;;;4976064;28;19922;-89
2023/07/30 14:21:47;;;;;;;;;;;;;;;;;;4992070;28;19922;-88
2023/07/30 14:24:13;;;;;;;;;;;;;;;;;;4991330;28;19929;-89
2023/07/30 14:26:39;;;;;;;;;;;;;;;;;;4998245;28;19921;-94
2023/07/30 14:29:05;;;;;;;;;;;;;;;;;;5011664;28;19949;-89
2023/07/30 14:31:31;;;;;;;;;;;;;;;;;;5010931;28;19941;-89
2023/07/30 14:33:57;;;;;;;;;;;;;;;;;;5010943;28;19921;-90
2023/07/30 14:36:23;;;;;;;;;;;;;;;;;;5010904;28;19928;-88
2023/07/30 14:38:49;;;;;;;;;;;;;;;;;;5012222;28;19922;-89
2023/07/30 14:41:15;;;;;;;;;;;;;;;;;;5011055;28;19922;-89
2023/07/30 14:43:41;;;;;;;;;;;;;;;;;;5010749;28;19937;-89
2023/07/30 14:46:13;;;;;;;;;;;;;;;;;;5027298;28;19922;-89
2023/07/30 14:48:39;;;;;;;;;;;;;;;;;;5011047;28;19928;-89
2023/07/30 14:51:05;;;;;;;;;;;;;;;;;;5010867;28;19925;-89
2023/07/30 14:53:31;;;;;;;;;;;;;;;;;;5011074;28;19979;-89
2023/07/30 14:55:56;;;;;;;;;;;;;;;;;;5010869;28;20407;-89
2023/07/30 14:58:22;;;;;;;;;;;;;;;;;;5010444;28;20012;-90
2023/07/30 15:00:50;;;;;;;;;;;;;;;;;;5011170;28;20016;-90
2023/07/30 15:03:16;;;;;;;;;;;;;;;;;;5010665;28;19976;-90
2023/07/30 15:05:42;;;;;;;;;;;;;;;;;;5010557;28;20307;-90
2023/07/30 15:08:08;;;;;;;;;;;;;;;;;;5010952;28;19929;-89
2023/07/30 15:10:34;;;;;;;;;;;;;;;;;;5010961;28;20031;-90
2023/07/30 15:12:59;;;;;;;;;;;;;;;;;;5010280;28;19928;-90
2023/07/30 15:15:25;;;;;;;;;;;;;;;;;;5011744;28;19932;-89
2023/07/30 15:17:51;;;;;;;;;;;;;;;;;;5014816;28;19972;-88
2023/07/30 15:20:17;;;;;;;;;;;;;;;;;;5014642;28;19921;-89
2023/07/30 15:22:43;;;;;;;;;;;;;;;;;;5030910;28;19925;-88
2023/07/30 15:25:09;;;;;;;;;;;;;;;;;;5015413;28;20253;-89
2023/07/30 15:27:35;;;;;;;;;;;;;;;;;;5014008;28;19932;-89
2023/07/30 15:30:01;;;;;;;;;;;;;;;;;;5016221;28;19921;-90
2023/07/30 15:32:27;;;;;;;;;;;;;;;;;;5015514;28;19932;-90
2023/07/30 15:34:53;;;;;;;;;;;;;;;;;;5030575;28;19921;-89
2023/07/30 15:37:18;;;;;;;;;;;;;;;;;;5013736;28;19922;-88
2023/07/30 15:39:44;;;;;;;;;;;;;;;;;;5013792;28;19921;-88
2023/07/30 15:42:10;;;;;;;;;;;;;;;;;;5013695;28;19922;-87
2023/07/30 15:44:36;;;;;;;;;;;;;;;;;;5013786;28;20371;-87
2023/07/30 15:47:02;;;;;;;;;;;;;;;;;;5014027;28;20408;-91
2023/07/30 15:49:28;;;;;;;;;;;;;;;;;;5013991;28;19976;-89
2023/07/30 15:51:54;;;;;;;;;;;;;;;;;;5014031;28;19921;-91
2023/07/30 15:54:20;;;;;;;;;;;;;;;;;;5015297;28;19925;-89
2023/07/30 15:56:46;;;;;;;;;;;;;;;;;;5029942;28;19925;-89
2023/07/30 15:59:12;;;;;;;;;;;;;;;;;;5013668;28;19992;-90
2023/07/30 16:01:38;;;;;;;;;;;;;;;;;;5013814;28;19929;-90
2023/07/30 16:04:04;;;;;;;;;;;;;;;;;;5013533;28;19929;-90
2023/07/30 16:06:30;;;;;;;;;;;;;;;;;;5013303;28;19929;-89
2023/07/30 16:08:56;;;;;;;;;;;;;;;;;;5030356;28;19922;-89
2023/07/30 16:11:22;;;;;;;;;;;;;;;;;;5013621;28;19921;-89
2023/07/30 16:13:48;;;;;;;;;;;;;;;;;;5030170;28;20008;-89
2023/07/30 16:16:14;;;;;;;;;;;;;;;;;;5013125;28;20040;-88
2023/07/30 16:18:42;;;;;;;;;;;;;;;;;;5013497;28;19921;-89
2023/07/30 16:21:08;;;;;;;;;;;;;;;;;;5029953;28;19975;-89
2023/07/30 16:23:34;;;;;;;;;;;;;;;;;;5013086;28;19972;-90
2023/07/30 16:26:00;;;;;;;;;;;;;;;;;;5013065;28;19943;-91
2023/07/30 16:28:26;;;;;;;;;;;;;;;;;;5009770;28;20364;-91
2023/07/30 16:30:52;;;;;;;;;;;;;;;;;;5013608;28;20017;-91
2023/07/30 16:33:18;;;;;;;;;;;;;;;;;;5013463;28;19956;-92
2023/07/30 16:35:44;;;;;;;;;;;;;;;;;;5013063;28;19949;-92